Kerr, Ohio
Current Conditions -  °F | °C
As of 8:35 PM on Monday 22 Dec 2014 (Local Time) from K3I2 Reporting Station
Broken Clouds Broken Clouds  
Wind Chill: 10°   Ceiling: 7000
Heat Index: 10°   Visibility: 10mi
Dew Point:   Wind: 7mph
Humidity: 71%   Direction: 110°ESE
Pressure: 29.87"   Gusts: NA
Location:  38.87°N, 82.26°W
Report Text: K3I2 230135Z AUTO 11006KT 10SM BKN070 BKN090 10/05 A2987 RMK AO2
Loading
Personal Weather Stations






























Interactive Weather Map New forecast layout! Learn more

10-Day Weather Forecast

Advertisements
Track Severe Weather on mobile